createdAt,value
2017-12-26T00:02:27.238Z,-3.73
2017-12-26T00:04:54.899Z,-3.70
2017-12-26T00:07:22.667Z,-3.71
2017-12-26T00:09:50.350Z,-3.68
2017-12-26T00:12:18.045Z,-3.78
2017-12-26T00:14:45.809Z,-3.75
2017-12-26T00:17:13.586Z,-3.77
2017-12-26T00:19:41.261Z,-3.69
2017-12-26T00:22:09.062Z,-3.81
2017-12-26T00:24:36.884Z,-3.91
2017-12-26T00:27:04.642Z,-3.99
2017-12-26T00:29:32.324Z,-3.87
2017-12-26T00:32:00.073Z,-3.99
2017-12-26T00:34:27.842Z,-4.00
2017-12-26T00:36:55.521Z,-4.02
2017-12-26T00:39:23.272Z,-3.97
2017-12-26T00:41:51.724Z,-4.22
2017-12-26T00:44:19.461Z,-4.13
2017-12-26T00:46:48.210Z,-4.12
2017-12-26T00:49:16.011Z,-4.13
2017-12-26T00:51:43.682Z,-4.12
2017-12-26T00:54:11.518Z,-4.14
2017-12-26T00:56:39.229Z,-4.10
2017-12-26T00:59:07.651Z,-4.16
2017-12-26T01:01:35.380Z,-4.21
2017-12-26T01:04:03.125Z,-4.24
2017-12-26T01:06:31.919Z,-4.17
2017-12-26T01:08:59.597Z,-4.14
2017-12-26T01:11:28.101Z,-4.24
2017-12-26T01:13:56.547Z,-4.30
2017-12-26T01:16:25.450Z,-4.34
2017-12-26T01:18:57.180Z,-4.31
2017-12-26T01:21:24.921Z,-4.25
2017-12-26T01:23:53.408Z,-4.16
2017-12-26T01:26:21.160Z,-4.18
2017-12-26T01:28:48.879Z,-4.17
2017-12-26T01:31:16.608Z,-4.12
2017-12-26T01:33:44.283Z,-3.99
2017-12-26T01:36:15.371Z,-4.05
2017-12-26T01:38:44.359Z,-4.00
2017-12-26T01:41:14.697Z,-4.41
2017-12-26T01:43:43.133Z,-4.40
2017-12-26T01:46:23.804Z,-4.34
2017-12-26T01:48:51.567Z,-4.31
2017-12-26T01:51:19.492Z,-4.32
2017-12-26T01:53:48.455Z,-4.46
2017-12-26T01:56:17.444Z,-4.43
2017-12-26T01:58:46.760Z,-4.41
2017-12-26T02:01:17.288Z,-4.39
2017-12-26T02:03:45.792Z,-4.57
2017-12-26T02:08:48.325Z,-4.47
2017-12-26T02:11:19.179Z,-4.53
2017-12-26T02:13:49.541Z,-4.45
2017-12-26T02:16:18.395Z,-4.46
2017-12-26T02:18:47.929Z,-4.39
2017-12-26T02:21:15.637Z,-4.36
2017-12-26T02:23:45.763Z,-4.64
2017-12-26T02:26:14.317Z,-4.51
2017-12-26T02:28:45.714Z,-4.39
2017-12-26T02:31:14.672Z,-4.57
2017-12-26T02:33:43.697Z,-4.59
2017-12-26T02:36:11.411Z,-4.63
2017-12-26T02:38:39.789Z,-4.54
2017-12-26T02:41:13.955Z,-4.48
2017-12-26T02:43:41.622Z,-4.58
2017-12-26T02:46:11.615Z,-4.67
2017-12-26T02:48:48.618Z,-4.60
2017-12-26T02:51:17.026Z,-4.63
2017-12-26T02:53:45.669Z,-4.60
2017-12-26T02:56:14.300Z,-4.55
2017-12-26T02:58:43.086Z,-4.47
2017-12-26T03:03:56.828Z,-4.48
2017-12-26T03:06:26.446Z,-4.55
2017-12-26T03:09:06.738Z,-4.55
2017-12-26T03:11:38.601Z,-4.77
2017-12-26T03:14:13.248Z,-4.72
2017-12-26T03:16:50.762Z,-4.68
2017-12-26T03:19:26.280Z,-4.58
2017-12-26T03:22:04.027Z,-4.57
2017-12-26T03:24:31.752Z,-4.56
2017-12-26T03:27:01.246Z,-4.78
2017-12-26T03:29:33.272Z,-4.80
2017-12-26T03:32:02.085Z,-4.84
2017-12-26T03:35:50.253Z,-4.69
2017-12-26T03:38:17.966Z,-4.48
2017-12-26T03:40:45.800Z,-4.59
2017-12-26T03:43:13.507Z,-4.66
2017-12-26T03:45:46.091Z,-4.70
2017-12-26T03:48:13.815Z,-4.70
2017-12-26T03:50:42.439Z,-4.72
2017-12-26T03:53:10.254Z,-4.60
2017-12-26T03:55:39.604Z,-4.63
2017-12-26T03:58:09.625Z,-4.63
2017-12-26T04:00:39.657Z,-4.60
2017-12-26T04:03:08.238Z,-4.63
2017-12-26T04:05:39.009Z,-4.57
2017-12-26T04:08:09.023Z,-4.64
2017-12-26T04:10:37.348Z,-4.64
2017-12-26T04:13:05.027Z,-4.68
2017-12-26T04:15:33.537Z,-4.62
2017-12-26T04:18:01.246Z,-4.48
2017-12-26T04:20:28.997Z,-4.36
2017-12-26T04:22:56.725Z,-4.30
2017-12-26T04:25:25.491Z,-4.23
2017-12-26T04:27:53.277Z,-4.22
2017-12-26T04:30:23.966Z,-4.24
2017-12-26T04:32:51.942Z,-4.46
2017-12-26T04:35:21.043Z,-4.48
2017-12-26T04:37:48.770Z,-4.55
2017-12-26T04:40:17.385Z,-4.57
2017-12-26T04:42:47.325Z,-4.61
2017-12-26T04:45:15.210Z,-4.50
2017-12-26T04:47:43.878Z,-4.57
2017-12-26T04:50:13.703Z,-4.38
2017-12-26T04:52:42.042Z,-4.43
2017-12-26T04:55:09.749Z,-4.41
2017-12-26T04:57:38.320Z,-4.51
2017-12-26T05:00:06.205Z,-4.63
2017-12-26T05:02:33.895Z,-4.62
2017-12-26T05:05:01.607Z,-4.42
2017-12-26T05:07:29.379Z,-4.40
2017-12-26T05:09:59.973Z,-4.31
2017-12-26T05:12:27.647Z,-4.36
2017-12-26T05:14:55.400Z,-4.40
2017-12-26T05:17:23.812Z,-4.25
2017-12-26T05:19:53.101Z,-4.26
2017-12-26T05:22:20.809Z,-4.23
2017-12-26T05:24:48.560Z,-4.34
2017-12-26T05:27:16.404Z,-4.35
2017-12-26T05:29:44.979Z,-4.41
2017-12-26T05:32:12.829Z,-4.34
2017-12-26T05:34:40.567Z,-4.30
2017-12-26T05:37:08.289Z,-4.31
2017-12-26T05:39:35.979Z,-4.34
2017-12-26T05:42:03.726Z,-4.37
2017-12-26T05:44:31.419Z,-4.45
2017-12-26T05:47:00.316Z,-4.32
2017-12-26T05:49:28.005Z,-4.60
2017-12-26T05:51:55.689Z,-4.62
2017-12-26T05:54:23.465Z,-4.72
2017-12-26T05:56:51.221Z,-4.74
2017-12-26T05:59:19.809Z,-4.81
2017-12-26T06:01:47.655Z,-4.60
2017-12-26T06:04:15.343Z,-4.56
2017-12-26T06:06:43.069Z,-4.62
2017-12-26T06:09:11.447Z,-4.59
2017-12-26T06:11:39.134Z,-4.52
2017-12-26T06:14:10.647Z,-4.48
2017-12-26T06:16:39.514Z,-4.45
2017-12-26T06:19:07.201Z,-4.37
2017-12-26T06:21:34.940Z,-4.33
2017-12-26T06:24:02.701Z,-4.29
2017-12-26T06:26:33.209Z,-4.27
2017-12-26T06:29:01.971Z,-4.21
2017-12-26T06:31:29.720Z,-4.16
2017-12-26T06:33:57.538Z,-4.13
2017-12-26T06:36:25.298Z,-4.25
2017-12-26T06:38:53.007Z,-4.33
2017-12-26T06:41:20.768Z,-4.29
2017-12-26T06:43:48.500Z,-4.32
2017-12-26T06:46:16.267Z,-4.29
2017-12-26T06:48:44.965Z,-4.51
2017-12-26T06:51:12.780Z,-4.65
2017-12-26T06:53:40.519Z,-4.64
2017-12-26T06:56:09.185Z,-4.73
2017-12-26T06:58:37.811Z,-4.68
2017-12-26T07:01:05.554Z,-4.79
2017-12-26T07:03:33.259Z,-4.80
2017-12-26T07:06:01.045Z,-4.72
2017-12-26T07:08:28.821Z,-4.60
2017-12-26T07:10:56.555Z,-4.42
2017-12-26T07:13:24.516Z,-4.28
2017-12-26T07:15:52.281Z,-4.27
2017-12-26T07:18:20.037Z,-4.28
2017-12-26T07:20:53.355Z,-4.28
2017-12-26T07:23:21.169Z,-4.21
2017-12-26T07:25:48.871Z,-4.17
2017-12-26T07:28:17.369Z,-4.09
2017-12-26T07:30:46.345Z,-4.28
2017-12-26T07:33:14.102Z,-4.09
2017-12-26T07:35:41.884Z,-4.07
2017-12-26T07:38:09.653Z,-4.06
2017-12-26T07:40:38.006Z,-3.97
2017-12-26T07:43:05.997Z,-4.18
2017-12-26T07:45:33.725Z,-4.45
2017-12-26T07:48:02.528Z,-4.38
2017-12-26T07:50:30.303Z,-4.44
2017-12-26T07:52:58.064Z,-4.29
2017-12-26T07:55:25.822Z,-4.26
2017-12-26T07:57:53.550Z,-4.35
2017-12-26T08:00:21.324Z,-4.30
2017-12-26T08:02:49.129Z,-4.10
2017-12-26T08:05:16.987Z,-4.06
2017-12-26T08:07:44.688Z,-3.96
2017-12-26T08:10:12.566Z,-4.19
2017-12-26T08:12:40.270Z,-4.22
2017-12-26T08:15:08.048Z,-4.09
2017-12-26T08:17:35.838Z,-4.06
2017-12-26T08:20:05.057Z,-4.22
2017-12-26T08:22:33.029Z,-4.20
2017-12-26T08:25:00.831Z,-4.29
2017-12-26T08:27:29.325Z,-4.17
2017-12-26T08:29:57.036Z,-3.77
2017-12-26T08:32:24.844Z,-3.77
2017-12-26T08:34:52.580Z,-4.05
2017-12-26T08:37:20.354Z,-3.99
2017-12-26T08:39:48.079Z,-3.71
2017-12-26T08:42:15.843Z,-3.46
2017-12-26T08:44:43.674Z,-3.46
2017-12-26T08:47:11.956Z,-3.56
2017-12-26T08:49:39.699Z,-3.65
2017-12-26T08:52:07.426Z,-3.59
2017-12-26T08:54:35.226Z,-3.43
2017-12-26T08:57:03.032Z,-3.30
2017-12-26T08:59:30.799Z,-3.01
2017-12-26T09:01:58.561Z,-2.75
2017-12-26T09:04:26.393Z,-2.09
2017-12-26T09:06:54.232Z,-1.58
2017-12-26T09:09:22.008Z,-2.07
2017-12-26T09:11:49.750Z,-1.48
2017-12-26T09:14:17.499Z,-1.42
2017-12-26T09:16:45.437Z,-0.86
2017-12-26T09:19:13.184Z,-1.01
2017-12-26T09:21:40.966Z,0.23
2017-12-26T09:24:08.689Z,-0.11
2017-12-26T09:26:36.528Z,-1.31
2017-12-26T09:29:04.228Z,-1.49
2017-12-26T09:31:32.163Z,-1.26
2017-12-26T09:34:00.864Z,-1.67
2017-12-26T09:36:28.833Z,-1.98
2017-12-26T09:38:56.777Z,-1.92
2017-12-26T09:41:24.592Z,-1.50
2017-12-26T09:43:52.578Z,-1.39
2017-12-26T09:46:20.784Z,-1.22
2017-12-26T09:48:48.794Z,-1.87
2017-12-26T09:51:16.918Z,-1.15
2017-12-26T09:53:44.991Z,-0.83
2017-12-26T09:56:14.008Z,-1.01
2017-12-26T09:58:41.836Z,-0.09
2017-12-26T10:01:09.572Z,-0.36
2017-12-26T10:03:37.372Z,-0.14
2017-12-26T10:06:06.140Z,-0.42
2017-12-26T10:08:33.907Z,-0.25
2017-12-26T10:11:01.717Z,0.02
2017-12-26T10:13:29.483Z,0.69
2017-12-26T10:15:57.196Z,0.63
2017-12-26T10:18:24.965Z,0.42
2017-12-26T10:20:53.732Z,0.54
2017-12-26T10:23:21.537Z,1.17
2017-12-26T10:25:49.482Z,1.77
2017-12-26T10:28:17.378Z,1.82
2017-12-26T10:30:45.176Z,2.08
2017-12-26T10:33:13.010Z,2.71
2017-12-26T10:35:40.798Z,2.87
2017-12-26T10:38:08.662Z,2.78
2017-12-26T10:40:36.468Z,1.64
2017-12-26T10:43:04.246Z,2.19
2017-12-26T10:45:32.026Z,3.01
2017-12-26T10:47:59.790Z,2.69
2017-12-26T10:50:27.578Z,2.41
2017-12-26T10:52:55.655Z,2.50
2017-12-26T10:55:23.427Z,2.80
2017-12-26T10:57:51.137Z,3.61
2017-12-26T11:00:19.034Z,3.21
2017-12-26T11:02:46.762Z,3.48
2017-12-26T11:05:14.467Z,3.22
2017-12-26T11:07:42.408Z,3.46
2017-12-26T11:10:10.525Z,3.17
2017-12-26T11:12:38.346Z,2.61
2017-12-26T11:15:06.125Z,1.85
2017-12-26T11:17:36.249Z,2.06
2017-12-26T11:20:04.046Z,2.53
2017-12-26T11:22:31.776Z,2.71
2017-12-26T11:24:59.551Z,2.51
2017-12-26T11:27:27.288Z,2.87
2017-12-26T11:29:55.052Z,3.34
2017-12-26T11:32:22.802Z,4.04
2017-12-26T11:34:50.557Z,3.39
2017-12-26T11:37:18.477Z,4.16
2017-12-26T11:39:46.223Z,3.57
2017-12-26T11:42:14.033Z,3.37
2017-12-26T11:44:41.795Z,2.80
2017-12-26T11:47:09.571Z,2.79
2017-12-26T11:49:37.322Z,2.78
2017-12-26T11:52:05.056Z,3.21
2017-12-26T11:54:32.858Z,3.63
2017-12-26T11:57:00.597Z,2.82
2017-12-26T11:59:28.414Z,3.46
2017-12-26T12:01:56.149Z,3.16
2017-12-26T12:04:23.858Z,3.10
2017-12-26T12:06:51.626Z,3.01
2017-12-26T12:09:19.641Z,2.98
2017-12-26T12:11:47.344Z,2.86
2017-12-26T12:14:15.128Z,2.89
2017-12-26T12:16:42.926Z,3.78
2017-12-26T12:19:10.632Z,4.26
2017-12-26T12:21:38.399Z,3.45
2017-12-26T12:24:07.340Z,3.39
2017-12-26T12:26:35.050Z,3.40
2017-12-26T12:29:02.859Z,3.77
2017-12-26T12:31:30.564Z,3.16
2017-12-26T12:33:58.322Z,3.03
2017-12-26T12:36:26.100Z,3.08
2017-12-26T12:38:53.998Z,2.95
2017-12-26T12:41:21.824Z,2.45
2017-12-26T12:43:49.677Z,2.03
2017-12-26T12:46:18.280Z,2.47
2017-12-26T12:48:46.040Z,2.38
2017-12-26T12:51:14.185Z,2.19
2017-12-26T12:53:41.979Z,1.87
2017-12-26T12:56:09.771Z,2.31
2017-12-26T12:58:37.570Z,2.39
2017-12-26T13:01:05.388Z,2.91
2017-12-26T13:03:33.147Z,2.83
2017-12-26T13:06:00.914Z,2.88
2017-12-26T13:08:28.754Z,2.47
2017-12-26T13:10:56.626Z,2.27
2017-12-26T13:13:24.376Z,2.14
2017-12-26T13:15:52.155Z,2.17
2017-12-26T13:18:21.476Z,2.20
2017-12-26T13:20:49.426Z,1.87
2017-12-26T13:23:17.255Z,1.77
2017-12-26T13:25:45.070Z,1.93
2017-12-26T13:28:12.770Z,1.83
2017-12-26T13:30:40.600Z,1.84
2017-12-26T13:33:08.483Z,1.83
2017-12-26T13:35:36.260Z,1.80
2017-12-26T13:38:04.115Z,2.14
2017-12-26T13:40:31.950Z,2.26
2017-12-26T13:43:00.340Z,2.20
2017-12-26T13:45:28.118Z,2.01
2017-12-26T13:47:55.983Z,2.12
2017-12-26T13:50:23.776Z,1.99
2017-12-26T13:52:51.517Z,2.16
2017-12-26T13:55:19.374Z,1.98
2017-12-26T13:57:47.155Z,1.64
2017-12-26T14:00:14.928Z,1.58
2017-12-26T14:02:42.790Z,1.60
2017-12-26T14:05:10.576Z,1.43
2017-12-26T14:07:38.424Z,1.45
2017-12-26T14:10:06.148Z,1.66
2017-12-26T14:12:34.006Z,1.63
2017-12-26T14:15:01.816Z,1.76
2017-12-26T14:17:29.513Z,1.74
2017-12-26T14:19:57.280Z,1.77
2017-12-26T14:22:25.076Z,1.85
2017-12-26T14:24:52.796Z,1.85
2017-12-26T14:27:20.535Z,1.73
2017-12-26T14:29:48.344Z,1.70
2017-12-26T14:32:17.217Z,1.75
2017-12-26T14:34:44.955Z,1.77
2017-12-26T14:37:12.754Z,1.77
2017-12-26T14:39:40.491Z,1.67
2017-12-26T14:42:08.283Z,1.55
2017-12-26T14:44:36.477Z,1.30
2017-12-26T14:47:04.200Z,1.07
2017-12-26T14:49:31.938Z,1.22
2017-12-26T14:51:59.880Z,1.12
2017-12-26T14:54:27.765Z,1.03
2017-12-26T14:56:55.534Z,1.18
2017-12-26T14:59:23.420Z,1.14
2017-12-26T15:01:51.243Z,1.23
2017-12-26T15:04:19.029Z,1.14
2017-12-26T15:06:46.802Z,0.99
2017-12-26T15:09:14.668Z,1.08
2017-12-26T15:11:42.528Z,1.09
2017-12-26T15:14:11.300Z,1.02
2017-12-26T15:16:39.198Z,1.06
2017-12-26T15:19:06.976Z,1.11
2017-12-26T15:21:34.731Z,1.10
2017-12-26T15:24:02.580Z,1.07
2017-12-26T15:26:30.372Z,0.97
2017-12-26T15:28:58.121Z,0.89
2017-12-26T15:31:26.375Z,0.64
2017-12-26T15:33:54.168Z,0.77
2017-12-26T15:36:21.965Z,0.64
2017-12-26T15:38:49.809Z,0.64
2017-12-26T15:41:17.527Z,0.67
2017-12-26T15:43:45.539Z,0.58
2017-12-26T15:46:13.348Z,0.55
2017-12-26T15:48:42.029Z,0.59
2017-12-26T15:51:09.821Z,0.62
2017-12-26T15:53:37.629Z,0.52
2017-12-26T15:56:05.399Z,0.51
2017-12-26T15:58:33.843Z,0.50
2017-12-26T16:01:01.858Z,0.37
2017-12-26T16:03:29.755Z,0.41
2017-12-26T16:05:58.178Z,0.25
2017-12-26T16:08:26.088Z,0.26
2017-12-26T16:10:53.864Z,0.16
2017-12-26T16:13:21.872Z,0.13
2017-12-26T16:15:50.951Z,0.04
2017-12-26T16:18:18.865Z,0.06
2017-12-26T16:20:46.677Z,0.14
2017-12-26T16:23:14.665Z,-0.05
2017-12-26T16:25:42.525Z,0.00
2017-12-26T16:28:10.333Z,0.10
2017-12-26T16:30:38.086Z,0.05
2017-12-26T16:33:05.912Z,0.06
2017-12-26T16:35:33.712Z,0.09
2017-12-26T16:38:01.609Z,0.15
2017-12-26T16:40:29.333Z,-0.19
2017-12-26T16:42:57.251Z,-0.15
2017-12-26T16:45:25.077Z,-0.08
2017-12-26T16:47:53.195Z,-0.15
2017-12-26T16:50:21.306Z,-0.12
2017-12-26T16:52:49.388Z,-0.05
2017-12-26T16:55:17.285Z,-0.14
2017-12-26T16:57:45.072Z,-0.32
2017-12-26T17:00:12.892Z,-0.15
2017-12-26T17:02:40.781Z,-0.17
2017-12-26T17:05:08.562Z,-0.25
2017-12-26T17:07:36.388Z,-0.44
2017-12-26T17:10:04.252Z,-0.54
2017-12-26T17:12:32.685Z,-0.51
2017-12-26T17:15:01.941Z,-0.54
2017-12-26T17:17:29.987Z,-0.50
2017-12-26T17:19:57.800Z,-0.52
2017-12-26T17:22:25.696Z,-0.42
2017-12-26T17:24:53.585Z,-0.45
2017-12-26T17:27:21.468Z,-0.54
2017-12-26T17:29:49.915Z,-0.52
2017-12-26T17:32:17.831Z,-0.53
2017-12-26T17:34:45.867Z,-0.60
2017-12-26T17:37:13.799Z,-0.61
2017-12-26T17:39:41.779Z,-0.61
2017-12-26T17:42:09.542Z,-0.62
2017-12-26T17:44:37.717Z,-0.76
2017-12-26T17:47:05.625Z,-0.60
2017-12-26T17:49:34.656Z,-0.80
2017-12-26T17:52:03.200Z,-0.67
2017-12-26T17:54:31.201Z,-0.72
2017-12-26T17:56:59.132Z,-0.73
2017-12-26T17:59:27.037Z,-0.80
2017-12-26T18:01:54.795Z,-0.84
2017-12-26T18:04:22.715Z,-0.83
2017-12-26T18:06:50.585Z,-0.79
2017-12-26T18:09:18.395Z,-0.78
2017-12-26T18:11:46.158Z,-0.83
2017-12-26T18:14:13.914Z,-0.76
2017-12-26T18:16:41.680Z,-0.83
2017-12-26T18:19:09.605Z,-0.98
2017-12-26T18:21:37.525Z,-0.88
2017-12-26T18:24:05.456Z,-0.85
2017-12-26T18:26:33.288Z,-0.83
2017-12-26T18:29:01.097Z,-0.96
2017-12-26T18:31:28.891Z,-1.02
2017-12-26T18:33:56.641Z,-0.95
2017-12-26T18:36:24.596Z,-0.91
2017-12-26T18:38:52.378Z,-1.09
2017-12-26T18:41:20.529Z,-1.20
2017-12-26T18:43:48.333Z,-1.28
2017-12-26T18:46:16.118Z,-1.26
2017-12-26T18:48:44.936Z,-1.42
2017-12-26T18:51:12.974Z,-1.42
2017-12-26T18:53:40.809Z,-1.41
2017-12-26T18:56:10.084Z,-1.55
2017-12-26T18:58:37.873Z,-1.50
2017-12-26T19:01:05.859Z,-1.41
2017-12-26T19:03:34.800Z,-1.40
2017-12-26T19:06:02.556Z,-1.57
2017-12-26T19:08:30.399Z,-1.64
2017-12-26T19:10:58.246Z,-1.60
2017-12-26T19:13:26.124Z,-1.49
2017-12-26T19:15:53.996Z,-1.64
2017-12-26T19:18:21.922Z,-1.70
2017-12-26T19:20:49.956Z,-1.78
2017-12-26T19:23:17.911Z,-1.79
2017-12-26T19:25:47.647Z,-1.78
2017-12-26T19:28:16.235Z,-1.79
2017-12-26T19:30:45.058Z,-1.74
2017-12-26T19:33:13.122Z,-1.99
2017-12-26T19:35:40.925Z,-1.86
2017-12-26T19:38:09.875Z,-1.74
2017-12-26T19:40:37.626Z,-1.78
2017-12-26T19:43:05.551Z,-1.82
2017-12-26T19:45:33.737Z,-1.88
2017-12-26T19:48:01.582Z,-1.97
2017-12-26T19:50:29.556Z,-2.03
2017-12-26T19:52:57.902Z,-2.02
2017-12-26T19:55:26.097Z,-1.98
2017-12-26T19:57:53.988Z,-2.12
2017-12-26T20:00:23.071Z,-2.34
2017-12-26T20:02:51.023Z,-2.14
2017-12-26T20:05:19.089Z,-2.24
2017-12-26T20:07:48.187Z,-2.29
2017-12-26T20:10:16.536Z,-2.16
2017-12-26T20:12:44.490Z,-2.40
2017-12-26T20:15:12.405Z,-2.38
2017-12-26T20:17:43.450Z,-2.37
2017-12-26T20:20:11.283Z,-2.36
2017-12-26T20:22:41.027Z,-2.29
2017-12-26T20:25:09.415Z,-2.32
2017-12-26T20:27:37.674Z,-2.33
2017-12-26T20:30:06.393Z,-2.44
2017-12-26T20:32:34.239Z,-2.44
2017-12-26T20:35:02.214Z,-2.55
2017-12-26T20:37:30.055Z,-2.54
2017-12-26T20:39:59.058Z,-2.52
2017-12-26T20:42:26.906Z,-2.51
2017-12-26T20:44:54.679Z,-2.53
2017-12-26T20:47:22.455Z,-2.48
2017-12-26T20:49:50.185Z,-2.49
2017-12-26T20:52:18.014Z,-2.49
2017-12-26T20:54:46.340Z,-2.53
2017-12-26T20:57:14.680Z,-2.60
2017-12-26T20:59:42.587Z,-2.60
2017-12-26T21:02:10.390Z,-2.53
2017-12-26T21:04:38.152Z,-2.52
2017-12-26T21:07:05.968Z,-2.58
2017-12-26T21:09:34.613Z,-2.71
2017-12-26T21:12:02.425Z,-2.70
2017-12-26T21:14:30.203Z,-2.73
2017-12-26T21:16:58.228Z,-2.66
2017-12-26T21:19:26.021Z,-2.67
2017-12-26T21:21:53.854Z,-2.63
2017-12-26T21:24:21.679Z,-2.76
2017-12-26T21:26:49.791Z,-2.67
2017-12-26T21:29:17.645Z,-2.63
2017-12-26T21:31:45.443Z,-2.58
2017-12-26T21:34:13.235Z,-2.56
2017-12-26T21:36:41.087Z,-2.65
2017-12-26T21:39:08.941Z,-2.68
2017-12-26T21:41:38.806Z,-2.73
2017-12-26T21:44:06.592Z,-2.85
2017-12-26T21:46:34.699Z,-2.88
2017-12-26T21:49:02.613Z,-2.88
2017-12-26T21:51:30.460Z,-2.98
2017-12-26T21:53:58.171Z,-2.86
2017-12-26T21:56:25.963Z,-2.95
2017-12-26T21:58:53.721Z,-3.06
2017-12-26T22:01:22.117Z,-3.15
2017-12-26T22:03:49.848Z,-3.19
2017-12-26T22:06:18.974Z,-3.20
2017-12-26T22:08:47.298Z,-3.06
2017-12-26T22:11:15.157Z,-2.95
2017-12-26T22:13:42.929Z,-2.90
2017-12-26T22:16:10.696Z,-2.90
2017-12-26T22:18:38.461Z,-3.09
2017-12-26T22:21:06.812Z,-2.90
2017-12-26T22:23:34.574Z,-2.94
2017-12-26T22:26:02.475Z,-2.95
2017-12-26T22:28:30.449Z,-3.01
2017-12-26T22:30:58.538Z,-3.16
2017-12-26T22:33:26.402Z,-3.14
2017-12-26T22:35:54.910Z,-3.05
2017-12-26T22:38:22.637Z,-3.11
2017-12-26T22:40:50.424Z,-3.03
2017-12-26T22:43:18.147Z,-3.02
2017-12-26T22:45:45.889Z,-3.02
2017-12-26T22:48:13.745Z,-2.86
2017-12-26T22:50:41.534Z,-3.08
2017-12-26T22:53:09.763Z,-3.04
2017-12-26T22:55:37.568Z,-3.13
2017-12-26T22:58:05.323Z,-3.38
2017-12-26T23:00:33.252Z,-3.26
2017-12-26T23:03:01.161Z,-3.11
2017-12-26T23:05:29.041Z,-3.30
2017-12-26T23:07:57.765Z,-3.35
2017-12-26T23:10:25.661Z,-3.27
2017-12-26T23:12:53.569Z,-3.30
2017-12-26T23:15:27.069Z,-3.37
2017-12-26T23:18:00.493Z,-3.45
2017-12-26T23:20:33.862Z,-3.54
2017-12-26T23:23:07.260Z,-3.47
2017-12-26T23:25:40.618Z,-3.43
2017-12-26T23:28:13.982Z,-3.40
2017-12-26T23:30:47.188Z,-3.59
2017-12-26T23:33:20.545Z,-3.60
2017-12-26T23:38:58.184Z,-3.65
2017-12-26T23:41:31.504Z,-3.67
2017-12-26T23:44:04.915Z,-3.68
2017-12-26T23:46:38.956Z,-3.81
2017-12-26T23:49:12.824Z,-3.81
2017-12-26T23:51:46.304Z,-3.81
2017-12-26T23:54:19.659Z,-3.91
2017-12-26T23:56:53.090Z,-3.94
2017-12-26T23:59:26.353Z,-3.84
